Stations météo

Publicité
Lentran, Grande-Bretagne (99125): Température de l'air & dewpoint: 11.11.2018 19:00:00 - 17.11.2018 19:00:00 (GMT)Lentran, Grande-Bretagne (99125): Quantités de précipitations: 11.11.2018 19:00:00 - 17.11.2018 19:00:00 (GMT)
Date & Time tt [°C] td [°C] rr [mm]
17.11.2018 19:00:00 - - -
17.11.2018 18:00:00 - - -
17.11.2018 17:00:00 - - -
17.11.2018 16:00:00 2,7 2,6 0,0
17.11.2018 15:00:00 3,4 3,4 0,0
17.11.2018 14:00:00 4,6 4,6 0,0
17.11.2018 13:00:00 4,4 4,4 0,0
17.11.2018 12:00:00 - - -
17.11.2018 11:00:00 3,0 3,0 0,0
17.11.2018 10:00:00 3,3 3,3 0,0
17.11.2018 09:00:00 2,3 2,2 0,0
17.11.2018 08:00:00 2,7 2,3 0,2
17.11.2018 07:00:00 4,4 4,3 0,0
17.11.2018 06:00:00 4,6 4,6 0,0
17.11.2018 05:00:00 4,4 4,3 0,0
17.11.2018 04:00:00 4,5 4,4 0,0
17.11.2018 03:00:00 4,8 4,7 0,0
17.11.2018 02:00:00 4,9 4,7 0,0
17.11.2018 01:00:00 4,9 4,6 0,0
17.11.2018 00:00:00 5,7 5,4 0,0
16.11.2018 23:00:00 6,0 5,7 0,0
16.11.2018 22:00:00 6,2 5,9 0,0
16.11.2018 21:00:00 6,5 5,8 0,2
16.11.2018 20:00:00 7,1 6,8 0,0
16.11.2018 19:00:00 7,2 6,9 0,0
16.11.2018 18:00:00 6,8 6,5 0,0
16.11.2018 17:00:00 6,9 6,5 0,0
16.11.2018 16:00:00 8,1 6,6 0,0
16.11.2018 15:00:00 6,9 6,0 0,0
16.11.2018 14:00:00 6,5 6,0 0,0
16.11.2018 13:00:00 6,1 5,3 0,0
16.11.2018 12:00:00 5,2 4,4 0,0
16.11.2018 11:00:00 4,5 3,6 0,0
16.11.2018 10:00:00 3,4 2,8 0,0
16.11.2018 09:00:00 2,7 1,9 0,0
16.11.2018 08:00:00 2,9 2,1 0,0
16.11.2018 07:00:00 4,0 2,7 0,0
16.11.2018 06:00:00 5,2 2,9 0,0
16.11.2018 05:00:00 5,8 3,4 0,0
16.11.2018 04:00:00 6,5 4,3 0,0
16.11.2018 03:00:00 6,4 4,7 0,0
16.11.2018 02:00:00 7,5 4,3 0,0
16.11.2018 01:00:00 7,5 5,1 0,0
16.11.2018 00:00:00 8,6 5,1 0,0
15.11.2018 23:00:00 9,2 6,0 0,0
15.11.2018 22:00:00 8,6 6,5 0,0
15.11.2018 21:00:00 8,7 6,3 0,0
15.11.2018 20:00:00 8,8 7,0 0,2
15.11.2018 19:00:00 9,0 6,5 0,0
15.11.2018 18:00:00 11,1 7,8 0,0
15.11.2018 17:00:00 12,2 6,5 0,0
15.11.2018 16:00:00 11,7 5,5 0,0
15.11.2018 15:00:00 12,0 4,6 0,0
15.11.2018 14:00:00 13,4 5,6 0,0
15.11.2018 13:00:00 12,8 8,0 0,0
15.11.2018 12:00:00 12,8 8,7 0,0
15.11.2018 11:00:00 13,0 9,2 0,0
15.11.2018 10:00:00 12,3 9,6 0,0
15.11.2018 09:00:00 9,3 8,9 0,0
15.11.2018 08:00:00 10,0 9,5 0,2
15.11.2018 07:00:00 10,6 9,7 0,0
15.11.2018 06:00:00 11,6 10,7 0,0
15.11.2018 05:00:00 11,9 10,5 0,0
15.11.2018 04:00:00 12,7 10,4 0,0
15.11.2018 03:00:00 13,2 10,1 0,0
15.11.2018 02:00:00 12,8 10,3 0,0
15.11.2018 01:00:00 13,3 10,1 0,0
15.11.2018 00:00:00 13,7 10,3 0,0
14.11.2018 23:00:00 14,0 10,6 0,0
14.11.2018 22:00:00 14,2 10,5 0,0
14.11.2018 21:00:00 14,1 10,7 0,0
14.11.2018 20:00:00 13,9 10,7 0,0
14.11.2018 19:00:00 13,7 10,8 0,0
14.11.2018 18:00:00 13,3 11,2 0,0
14.11.2018 17:00:00 13,9 11,6 0,0
14.11.2018 16:00:00 13,8 11,7 0,0
14.11.2018 15:00:00 13,9 11,7 0,0
14.11.2018 14:00:00 13,8 12,0 0,0
14.11.2018 13:00:00 13,5 12,0 0,0
14.11.2018 12:00:00 11,1 10,4 0,2
14.11.2018 11:00:00 10,6 10,3 0,0
14.11.2018 10:00:00 10,1 9,9 0,2
14.11.2018 09:00:00 9,4 8,7 0,0
14.11.2018 08:00:00 9,2 8,4 0,0
14.11.2018 07:00:00 10,5 8,4 0,0
14.11.2018 06:00:00 9,6 8,1 0,0
14.11.2018 05:00:00 9,3 7,9 0,0
14.11.2018 04:00:00 10,1 7,8 0,0
14.11.2018 03:00:00 10,6 7,3 0,0
14.11.2018 02:00:00 9,4 6,5 0,0
14.11.2018 01:00:00 10,0 6,9 0,0
14.11.2018 00:00:00 9,5 6,6 0,0
13.11.2018 23:00:00 9,1 5,7 0,0
13.11.2018 22:00:00 8,6 4,9 0,0
13.11.2018 21:00:00 8,1 4,4 0,0
13.11.2018 20:00:00 7,4 4,3 0,0
13.11.2018 19:00:00 7,1 4,1 0,0
13.11.2018 18:00:00 7,6 5,1 0,0
13.11.2018 17:00:00 7,6 5,5 0,0
13.11.2018 16:00:00 6,6 4,9 0,0
13.11.2018 15:00:00 8,7 4,7 0,0
13.11.2018 14:00:00 8,9 6,2 0,0
13.11.2018 13:00:00 8,6 6,1 0,0
13.11.2018 12:00:00 8,4 6,4 0,0
13.11.2018 11:00:00 8,2 6,5 0,0
13.11.2018 10:00:00 7,5 6,6 0,0
13.11.2018 09:00:00 6,7 6,4 0,0
13.11.2018 08:00:00 4,7 4,5 0,0
13.11.2018 07:00:00 4,3 4,0 0,0
13.11.2018 06:00:00 5,6 5,6 0,0
13.11.2018 05:00:00 4,3 4,2 0,0
13.11.2018 04:00:00 4,0 3,9 0,0
13.11.2018 03:00:00 3,6 3,6 0,0
13.11.2018 02:00:00 3,4 3,1 0,0
13.11.2018 01:00:00 4,2 3,9 0,0
13.11.2018 00:00:00 3,5 3,2 0,0
12.11.2018 23:00:00 4,0 3,3 0,0
12.11.2018 22:00:00 6,4 4,5 0,0
12.11.2018 21:00:00 6,0 5,0 0,0
12.11.2018 20:00:00 6,5 4,7 0,0
12.11.2018 19:00:00 7,6 4,6 0,0
12.11.2018 18:00:00 7,6 4,9 0,2
12.11.2018 17:00:00 8,1 5,8 0,0
12.11.2018 16:00:00 7,2 5,7 0,0
12.11.2018 15:00:00 8,0 6,1 0,0
12.11.2018 14:00:00 8,1 6,4 0,0
12.11.2018 13:00:00 8,9 6,4 0,0
12.11.2018 12:00:00 8,2 7,5 0,0
12.11.2018 11:00:00 7,6 7,0 0,0
12.11.2018 10:00:00 6,9 6,4 0,0
12.11.2018 09:00:00 4,8 4,8 0,0
12.11.2018 08:00:00 3,7 3,7 0,0
12.11.2018 07:00:00 3,7 3,7 0,0
12.11.2018 06:00:00 3,1 3,1 0,0
12.11.2018 05:00:00 1,7 1,7 0,0
12.11.2018 04:00:00 1,7 1,7 0,0
12.11.2018 03:00:00 2,2 2,2 0,0
12.11.2018 02:00:00 2,0 2,0 0,0
12.11.2018 01:00:00 2,1 2,1 0,0
12.11.2018 00:00:00 1,9 1,9 0,0
11.11.2018 23:00:00 1,9 1,8 0,0
11.11.2018 22:00:00 2,7 2,7 0,0
11.11.2018 21:00:00 1,7 1,6 0,2
11.11.2018 20:00:00 2,1 2,1 0,0
11.11.2018 19:00:00 3,1 3,0 0,0

tt = Température de l'air
td = dewpoint
rr = Quantités de précipitations

stations d'obs. à proximité